createdAt,value
2019-02-19T00:01:19.533Z,11.55
2019-02-19T00:03:48.650Z,14.55
2019-02-19T00:06:18.450Z,12.58
2019-02-19T00:08:48.718Z,14.75
2019-02-19T00:11:18.695Z,12.15
2019-02-19T00:13:48.806Z,11.85
2019-02-19T00:16:18.709Z,11.93
2019-02-19T00:18:48.830Z,11.38
2019-02-19T00:21:18.636Z,11.68
2019-02-19T00:23:48.149Z,12.90
2019-02-19T00:26:19.716Z,10.28
2019-02-19T00:28:49.757Z,11.63
2019-02-19T00:31:19.936Z,10.68
2019-02-19T00:33:49.895Z,10.82
2019-02-19T00:36:19.907Z,11.50
2019-02-19T00:38:50.139Z,11.65
2019-02-19T00:41:20.600Z,10.78
2019-02-19T00:43:50.426Z,11.53
2019-02-19T00:46:20.972Z,8.53
2019-02-19T00:48:51.478Z,8.03
2019-02-19T00:51:21.598Z,8.38
2019-02-19T00:53:51.839Z,8.88
2019-02-19T00:56:21.631Z,7.00
2019-02-19T00:58:51.564Z,8.48
2019-02-19T01:01:21.867Z,7.58
2019-02-19T01:03:51.296Z,7.95
2019-02-19T01:06:21.539Z,8.10
2019-02-19T01:08:51.789Z,9.75
2019-02-19T01:11:21.847Z,8.15
2019-02-19T01:13:51.663Z,8.28
2019-02-19T01:16:21.853Z,8.45
2019-02-19T01:18:51.731Z,7.75
2019-02-19T01:21:21.156Z,8.88
2019-02-19T01:23:51.705Z,7.62
2019-02-19T01:26:22.231Z,6.30
2019-02-19T01:28:52.312Z,9.68
2019-02-19T01:31:22.775Z,6.10
2019-02-19T01:33:53.009Z,8.88
2019-02-19T01:36:23.075Z,7.35
2019-02-19T01:38:53.156Z,5.33
2019-02-19T01:41:22.653Z,6.83
2019-02-19T01:43:52.099Z,7.75
2019-02-19T01:46:22.228Z,8.18
2019-02-19T01:48:52.002Z,6.42
2019-02-19T01:51:22.423Z,8.43
2019-02-19T01:53:52.451Z,7.08
2019-02-19T01:56:22.253Z,7.33
2019-02-19T01:58:52.372Z,8.25
2019-02-19T02:01:22.278Z,9.70
2019-02-19T02:03:51.851Z,9.15
2019-02-19T02:06:21.943Z,9.18
2019-02-19T02:08:51.546Z,8.88
2019-02-19T02:11:22.087Z,5.97
2019-02-19T02:13:51.895Z,6.20
2019-02-19T02:16:21.656Z,6.42
2019-02-19T02:18:51.506Z,6.42
2019-02-19T02:21:21.709Z,8.25
2019-02-19T02:23:51.829Z,6.28
2019-02-19T02:26:22.297Z,6.80
2019-02-19T02:28:55.252Z,6.67
2019-02-19T02:31:25.358Z,5.10
2019-02-19T02:33:55.695Z,6.85
2019-02-19T02:36:28.720Z,7.00
2019-02-19T02:38:59.052Z,5.83
2019-02-19T02:41:28.911Z,7.97
2019-02-19T02:43:58.735Z,4.95
2019-02-19T02:46:29.092Z,6.83
2019-02-19T02:48:59.424Z,6.45
2019-02-19T02:51:29.243Z,6.22
2019-02-19T02:53:59.301Z,5.67
2019-02-19T02:56:28.798Z,5.62
2019-02-19T02:58:58.617Z,9.58
2019-02-19T03:01:29.104Z,4.67
2019-02-19T03:03:59.302Z,8.10
2019-02-19T03:06:48.239Z,6.97
2019-02-19T03:09:18.663Z,5.87
2019-02-19T03:11:48.985Z,5.87
2019-02-19T03:14:18.771Z,6.28
2019-02-19T03:16:49.204Z,5.60
2019-02-19T03:19:19.742Z,5.83
2019-02-19T03:21:50.183Z,6.37
2019-02-19T03:24:20.414Z,4.97
2019-02-19T03:26:50.704Z,8.10
2019-02-19T03:29:20.893Z,9.88
2019-02-19T03:31:50.644Z,4.80
2019-02-19T03:34:20.479Z,5.80
2019-02-19T03:36:49.956Z,8.25
2019-02-19T03:39:20.183Z,9.28
2019-02-19T03:41:49.587Z,7.67
2019-02-19T03:44:19.514Z,5.72
2019-02-19T03:46:49.260Z,5.30
2019-02-19T03:49:18.765Z,5.72
2019-02-19T03:51:48.633Z,6.28
2019-02-19T03:54:18.454Z,5.28
2019-02-19T03:56:47.999Z,5.28
2019-02-19T03:59:17.872Z,4.78
2019-02-19T04:01:48.073Z,4.47
2019-02-19T04:04:17.896Z,5.05
2019-02-19T04:06:47.696Z,5.92
2019-02-19T04:09:17.514Z,6.17
2019-02-19T04:11:46.916Z,7.25
2019-02-19T04:14:16.071Z,5.97
2019-02-19T04:16:46.336Z,6.35
2019-02-19T04:19:16.135Z,5.80
2019-02-19T04:21:46.174Z,5.20
2019-02-19T04:24:16.250Z,6.05
2019-02-19T04:26:46.484Z,9.28
2019-02-19T04:29:16.632Z,5.92
2019-02-19T04:31:47.116Z,5.17
2019-02-19T04:34:17.225Z,6.05
2019-02-19T04:36:47.520Z,4.90
2019-02-19T04:39:17.756Z,6.65
2019-02-19T04:41:47.955Z,5.80
2019-02-19T04:44:18.395Z,7.50
2019-02-19T04:46:48.351Z,7.37
2019-02-19T04:49:18.505Z,7.33
2019-02-19T04:51:49.031Z,7.03
2019-02-19T04:54:19.200Z,7.92
2019-02-19T04:56:49.374Z,5.08
2019-02-19T04:59:18.848Z,8.80
2019-02-19T05:01:48.597Z,7.25
2019-02-19T05:04:18.397Z,5.50
2019-02-19T05:06:48.687Z,5.75
2019-02-19T05:09:19.205Z,5.75
2019-02-19T05:11:49.553Z,6.17
2019-02-19T05:14:19.079Z,8.20
2019-02-19T05:16:49.201Z,8.73
2019-02-19T05:19:18.653Z,5.60
2019-02-19T05:21:48.872Z,6.20
2019-02-19T05:24:19.047Z,7.25
2019-02-19T05:26:49.164Z,6.40
2019-02-19T05:29:19.687Z,5.70
2019-02-19T05:31:49.879Z,6.00
2019-02-19T05:34:20.187Z,6.05
2019-02-19T05:36:50.425Z,6.03
2019-02-19T05:39:20.897Z,5.72
2019-02-19T05:41:50.806Z,5.67
2019-02-19T05:44:21.332Z,6.65
2019-02-19T05:46:51.437Z,7.62
2019-02-19T05:49:22.058Z,9.78
2019-02-19T05:51:52.137Z,7.78
2019-02-19T05:54:22.369Z,5.75
2019-02-19T05:56:53.004Z,6.62
2019-02-19T05:59:23.533Z,6.33
2019-02-19T06:01:53.821Z,7.22
2019-02-19T06:04:24.045Z,6.47
2019-02-19T06:06:54.467Z,7.53
2019-02-19T06:09:24.574Z,5.55
2019-02-19T06:11:54.499Z,8.23
2019-02-19T06:14:24.086Z,6.83
2019-02-19T06:16:58.475Z,7.97
2019-02-19T06:19:26.515Z,5.80
2019-02-19T06:21:56.774Z,7.25
2019-02-19T06:24:27.032Z,7.28
2019-02-19T06:26:56.964Z,6.97
2019-02-19T06:29:26.801Z,9.40
2019-02-19T06:31:56.995Z,6.45
2019-02-19T06:34:27.506Z,5.80
2019-02-19T06:36:57.482Z,6.05
2019-02-19T06:39:27.434Z,7.22
2019-02-19T06:41:57.888Z,6.80
2019-02-19T06:44:28.106Z,7.60
2019-02-19T06:47:06.504Z,7.12
2019-02-19T06:49:30.707Z,11.25
2019-02-19T06:52:00.945Z,8.50
2019-02-19T06:54:32.174Z,7.05
2019-02-19T06:57:02.569Z,8.15
2019-02-19T06:59:32.771Z,8.93
2019-02-19T07:02:20.534Z,5.50
2019-02-19T07:04:56.799Z,5.33
2019-02-19T07:07:26.614Z,7.03
2019-02-19T07:09:56.873Z,9.45
2019-02-19T07:12:27.112Z,7.40
2019-02-19T07:14:56.748Z,6.78
2019-02-19T07:17:26.888Z,5.97
2019-02-19T07:19:56.944Z,6.35
2019-02-19T07:22:27.123Z,7.30
2019-02-19T07:24:57.453Z,6.22
2019-02-19T07:27:27.681Z,6.00
2019-02-19T07:29:57.761Z,5.97
2019-02-19T07:32:27.607Z,7.87
2019-02-19T07:34:57.554Z,6.80
2019-02-19T07:37:27.327Z,10.30
2019-02-19T07:39:56.850Z,8.85
2019-02-19T07:42:26.706Z,6.47
2019-02-19T07:44:56.149Z,6.47
2019-02-19T07:47:26.250Z,7.70
2019-02-19T07:49:56.228Z,5.17
2019-02-19T07:52:26.186Z,7.72
2019-02-19T07:54:56.249Z,9.30
2019-02-19T07:57:26.123Z,6.33
2019-02-19T07:59:56.247Z,7.87
2019-02-19T08:02:26.442Z,5.72
2019-02-19T08:04:56.591Z,10.85
2019-02-19T08:07:26.417Z,16.75
2019-02-19T08:09:56.914Z,45.50
2019-02-19T08:12:26.842Z,23.50
2019-02-19T08:14:57.277Z,34.53
2019-02-19T08:17:33.062Z,8.33
2019-02-19T08:19:59.013Z,14.73
2019-02-19T08:22:29.166Z,10.20
2019-02-19T08:24:59.044Z,9.00
2019-02-19T08:27:29.277Z,6.62
2019-02-19T08:29:59.139Z,6.97
2019-02-19T08:32:29.036Z,9.13
2019-02-19T08:34:59.185Z,37.08
2019-02-19T08:37:28.795Z,20.02
2019-02-19T08:39:58.227Z,13.93
2019-02-19T08:42:28.174Z,21.87
2019-02-19T08:44:58.619Z,32.13
2019-02-19T08:47:28.821Z,11.70
2019-02-19T08:49:58.599Z,6.70
2019-02-19T08:52:28.472Z,6.83
2019-02-19T08:54:58.242Z,8.00
2019-02-19T08:57:28.792Z,6.58
2019-02-19T08:59:58.676Z,13.90
2019-02-19T09:02:29.497Z,23.22
2019-02-19T09:05:00.395Z,22.93
2019-02-19T09:07:30.789Z,10.45
2019-02-19T09:10:00.891Z,14.60
2019-02-19T09:12:31.295Z,17.50
2019-02-19T09:15:01.491Z,12.43
2019-02-19T09:17:31.277Z,12.55
2019-02-19T09:20:01.733Z,13.80
2019-02-19T09:22:31.756Z,11.95
2019-02-19T09:25:01.567Z,16.87
2019-02-19T09:27:32.183Z,14.45
2019-02-19T09:30:02.073Z,30.65
2019-02-19T09:32:32.324Z,19.85
2019-02-19T09:35:02.523Z,13.35
2019-02-19T09:37:32.827Z,12.40
2019-02-19T09:40:03.333Z,12.93
2019-02-19T09:42:33.600Z,12.00
2019-02-19T09:45:02.741Z,10.05
2019-02-19T09:47:33.004Z,12.55
2019-02-19T09:50:03.084Z,9.80
2019-02-19T09:52:33.343Z,11.93
2019-02-19T09:55:03.170Z,8.80
2019-02-19T09:57:32.936Z,10.80
2019-02-19T10:00:02.810Z,8.28
2019-02-19T10:02:32.724Z,9.00
2019-02-19T10:05:02.628Z,14.40
2019-02-19T10:07:33.079Z,16.80
2019-02-19T10:10:02.873Z,14.87
2019-02-19T10:12:32.683Z,12.85
2019-02-19T10:15:01.855Z,9.05
2019-02-19T10:17:31.944Z,11.60
2019-02-19T10:20:01.849Z,8.88
2019-02-19T10:22:31.976Z,9.13
2019-02-19T10:25:01.962Z,10.75
2019-02-19T10:27:32.001Z,11.75
2019-02-19T10:30:02.315Z,14.58
2019-02-19T10:32:32.573Z,10.88
2019-02-19T10:35:03.027Z,10.93
2019-02-19T10:37:33.585Z,12.00
2019-02-19T10:40:03.693Z,10.68
2019-02-19T10:42:34.153Z,9.50
2019-02-19T10:45:04.399Z,10.05
2019-02-19T10:47:35.937Z,12.25
2019-02-19T10:50:05.914Z,9.50
2019-02-19T10:52:35.378Z,11.20
2019-02-19T10:55:05.332Z,9.43
2019-02-19T10:57:35.282Z,9.63
2019-02-19T11:00:05.818Z,12.55
2019-02-19T11:02:35.276Z,10.78
2019-02-19T11:05:04.957Z,9.18
2019-02-19T11:07:34.888Z,12.58
2019-02-19T11:10:04.729Z,7.67
2019-02-19T11:12:34.832Z,8.60
2019-02-19T11:15:04.754Z,10.23
2019-02-19T11:17:35.308Z,10.03
2019-02-19T11:20:09.039Z,9.63
2019-02-19T11:22:39.113Z,9.93
2019-02-19T11:25:10.794Z,10.65
2019-02-19T11:27:40.725Z,10.32
2019-02-19T11:30:13.164Z,7.90
2019-02-19T11:32:42.961Z,12.33
2019-02-19T11:35:13.165Z,12.18
2019-02-19T11:37:42.949Z,10.70
2019-02-19T11:40:13.763Z,9.20
2019-02-19T11:42:43.979Z,11.35
2019-02-19T11:45:14.591Z,11.05
2019-02-19T11:47:44.797Z,10.48
2019-02-19T11:50:15.391Z,13.22
2019-02-19T11:52:45.527Z,10.65
2019-02-19T11:55:16.116Z,17.32
2019-02-19T11:57:46.490Z,10.85
2019-02-19T12:00:19.513Z,9.75
2019-02-19T12:02:49.875Z,12.10
2019-02-19T12:05:20.084Z,14.13
2019-02-19T12:07:50.557Z,12.07
2019-02-19T12:10:20.057Z,12.82
2019-02-19T12:12:50.079Z,12.68
2019-02-19T12:15:19.966Z,11.73
2019-02-19T12:17:49.481Z,12.47
2019-02-19T12:20:19.738Z,15.63
2019-02-19T12:22:50.051Z,14.55
2019-02-19T12:25:19.876Z,9.85
2019-02-19T12:27:49.966Z,11.05
2019-02-19T12:30:20.269Z,12.95
2019-02-19T12:32:50.783Z,12.70
2019-02-19T12:35:20.817Z,14.18
2019-02-19T12:37:50.667Z,12.28
2019-02-19T12:40:20.790Z,12.07
2019-02-19T12:42:51.084Z,13.80
2019-02-19T12:45:21.007Z,12.43
2019-02-19T12:47:50.806Z,11.65
2019-02-19T12:50:20.361Z,13.45
2019-02-19T12:52:50.737Z,11.93
2019-02-19T12:55:20.935Z,12.35
2019-02-19T12:57:50.360Z,14.63
2019-02-19T13:00:20.271Z,14.07
2019-02-19T13:02:50.095Z,11.48
2019-02-19T13:05:19.522Z,11.93
2019-02-19T13:07:49.322Z,14.60
2019-02-19T13:10:18.806Z,13.48
2019-02-19T13:12:49.137Z,13.45
2019-02-19T13:15:18.739Z,14.55
2019-02-19T13:17:49.146Z,12.93
2019-02-19T13:20:19.328Z,16.42
2019-02-19T13:22:49.954Z,16.60
2019-02-19T13:25:19.850Z,16.55
2019-02-19T13:27:49.338Z,15.43
2019-02-19T13:30:19.360Z,16.95
2019-02-19T13:32:49.498Z,15.88
2019-02-19T13:35:19.531Z,15.55
2019-02-19T13:37:49.798Z,17.23
2019-02-19T13:40:20.059Z,14.98
2019-02-19T13:42:49.852Z,17.55
2019-02-19T13:45:20.202Z,19.55
2019-02-19T13:47:50.094Z,18.02
2019-02-19T13:50:20.531Z,12.68
2019-02-19T13:52:58.679Z,16.73
2019-02-19T13:55:34.844Z,15.18
2019-02-19T13:58:05.475Z,13.10
2019-02-19T14:00:37.827Z,14.73
2019-02-19T14:03:07.253Z,14.58
2019-02-19T14:05:37.854Z,19.67
2019-02-19T14:08:14.174Z,14.00
2019-02-19T14:10:39.677Z,16.93
2019-02-19T14:13:09.931Z,16.35
2019-02-19T14:16:10.874Z,16.55
2019-02-19T14:18:58.533Z,15.18
2019-02-19T14:21:55.971Z,21.87
2019-02-19T14:24:46.365Z,18.85
2019-02-19T14:27:35.433Z,14.90
2019-02-19T14:30:23.134Z,15.75
2019-02-19T14:33:17.951Z,19.15
2019-02-19T14:36:18.790Z,17.85
2019-02-19T14:39:06.196Z,20.25
2019-02-19T14:42:01.336Z,15.43
2019-02-19T14:44:49.326Z,15.18
2019-02-19T14:47:37.011Z,13.13
2019-02-19T14:50:35.076Z,16.62
2019-02-19T14:53:35.552Z,18.75
2019-02-19T14:56:24.775Z,18.95
2019-02-19T14:59:07.865Z,16.52
2019-02-19T15:01:53.933Z,19.92
2019-02-19T15:04:41.790Z,18.10
2019-02-19T15:07:29.276Z,20.90
2019-02-19T15:10:23.669Z,18.00
2019-02-19T15:13:12.809Z,20.30
2019-02-19T15:15:58.208Z,18.62
2019-02-19T15:18:57.331Z,18.37
2019-02-19T15:21:56.207Z,14.23
2019-02-19T15:24:48.348Z,18.73
2019-02-19T15:27:40.289Z,17.70
2019-02-19T15:30:28.018Z,17.92
2019-02-19T15:33:15.407Z,16.40
2019-02-19T15:36:04.223Z,20.02
2019-02-19T15:38:41.757Z,33.38
2019-02-19T15:41:43.306Z,21.20
2019-02-19T15:44:47.287Z,19.65
2019-02-19T15:47:48.293Z,16.17
2019-02-19T15:50:39.893Z,16.10
2019-02-19T15:53:32.254Z,16.15
2019-02-19T15:56:17.837Z,17.57
2019-02-19T15:59:09.734Z,16.77
2019-02-19T16:01:54.658Z,16.87
2019-02-19T16:04:30.680Z,17.42
2019-02-19T16:07:19.836Z,14.50
2019-02-19T16:10:00.957Z,15.15
2019-02-19T16:12:52.918Z,20.48
2019-02-19T16:15:41.995Z,17.48
2019-02-19T16:18:40.109Z,20.45
2019-02-19T16:21:28.741Z,30.68
2019-02-19T16:24:23.670Z,22.62
2019-02-19T16:27:15.097Z,20.88
2019-02-19T16:30:00.600Z,25.25
2019-02-19T16:32:48.947Z,16.55
2019-02-19T16:35:37.700Z,15.55
2019-02-19T16:38:23.215Z,20.62
2019-02-19T16:41:20.884Z,20.10
2019-02-19T16:44:21.810Z,19.73
2019-02-19T16:47:13.873Z,21.95
2019-02-19T16:50:12.347Z,21.85
2019-02-19T16:53:02.338Z,20.00
2019-02-19T16:55:50.780Z,19.25
2019-02-19T16:58:42.136Z,20.40
2019-02-19T17:01:30.877Z,18.95
2019-02-19T17:04:19.728Z,15.58
2019-02-19T17:07:07.561Z,18.37
2019-02-19T17:09:46.704Z,16.02
2019-02-19T17:12:35.936Z,14.50
2019-02-19T17:15:23.568Z,16.67
2019-02-19T17:18:14.480Z,15.25
2019-02-19T17:20:53.221Z,23.57
2019-02-19T17:23:48.301Z,15.25
2019-02-19T17:26:41.200Z,13.88
2019-02-19T17:29:29.200Z,17.65
2019-02-19T17:32:13.540Z,17.45
2019-02-19T17:35:05.038Z,14.75
2019-02-19T17:37:48.810Z,12.47
2019-02-19T17:40:28.406Z,15.23
2019-02-19T17:43:20.687Z,12.78
2019-02-19T17:46:12.517Z,26.97
2019-02-19T17:48:59.741Z,20.55
2019-02-19T17:52:08.209Z,24.27
2019-02-19T17:55:07.886Z,15.75
2019-02-19T17:57:52.289Z,19.77
2019-02-19T18:00:33.181Z,37.83
2019-02-19T18:03:31.274Z,28.27
2019-02-19T18:06:16.735Z,45.70
2019-02-19T18:09:09.022Z,54.15
2019-02-19T18:12:03.775Z,74.35
2019-02-19T18:15:08.485Z,40.92
2019-02-19T18:18:12.381Z,22.07
2019-02-19T18:20:47.559Z,20.25
2019-02-19T18:23:14.599Z,15.80
2019-02-19T18:25:44.856Z,16.62
2019-02-19T18:28:14.780Z,18.00
2019-02-19T18:30:45.001Z,17.55
2019-02-19T18:33:15.835Z,25.88
2019-02-19T18:35:45.714Z,30.48
2019-02-19T18:38:16.017Z,18.95
2019-02-19T18:40:46.330Z,21.65
2019-02-19T18:43:16.514Z,18.77
2019-02-19T18:45:46.325Z,21.15
2019-02-19T18:48:16.439Z,18.30
2019-02-19T18:50:46.275Z,15.65
2019-02-19T18:53:15.773Z,20.90
2019-02-19T18:55:45.333Z,17.42
2019-02-19T18:58:15.498Z,15.95
2019-02-19T19:00:45.701Z,19.12
2019-02-19T19:03:15.948Z,22.48
2019-02-19T19:05:45.626Z,20.62
2019-02-19T19:08:16.395Z,20.10
2019-02-19T19:10:46.455Z,19.15
2019-02-19T19:13:16.327Z,21.77
2019-02-19T19:15:46.641Z,21.62
2019-02-19T19:18:19.070Z,25.77
2019-02-19T19:20:48.897Z,21.87
2019-02-19T19:23:19.391Z,21.55
2019-02-19T19:25:49.797Z,19.55
2019-02-19T19:28:19.778Z,20.27
2019-02-19T19:30:50.139Z,20.75
2019-02-19T19:33:20.831Z,21.12
2019-02-19T19:35:51.511Z,21.57
2019-02-19T19:38:21.490Z,18.42
2019-02-19T19:40:52.126Z,24.65
2019-02-19T19:43:22.124Z,22.13
2019-02-19T19:45:52.165Z,22.15
2019-02-19T19:48:22.753Z,18.57
2019-02-19T19:50:53.413Z,24.70
2019-02-19T19:53:23.254Z,22.93
2019-02-19T19:55:53.458Z,23.55
2019-02-19T19:58:23.508Z,23.50
2019-02-19T20:00:56.804Z,24.23
2019-02-19T20:03:26.712Z,27.85
2019-02-19T20:05:56.590Z,44.15
2019-02-19T20:08:27.183Z,49.10
2019-02-19T20:10:57.447Z,51.58
2019-02-19T20:13:27.962Z,51.95
2019-02-19T20:15:58.282Z,41.15
2019-02-19T20:18:27.901Z,37.40
2019-02-19T20:20:58.583Z,27.98
2019-02-19T20:23:28.943Z,25.72
2019-02-19T20:25:59.698Z,24.30
2019-02-19T20:28:30.016Z,22.20
2019-02-19T20:31:00.460Z,26.33
2019-02-19T20:33:30.787Z,27.35
2019-02-19T20:36:01.589Z,27.17
2019-02-19T20:38:31.478Z,33.48
2019-02-19T20:41:00.818Z,24.18
2019-02-19T20:43:31.555Z,25.35
2019-02-19T20:46:01.820Z,27.05
2019-02-19T20:48:32.249Z,24.43
2019-02-19T20:51:02.334Z,26.93
2019-02-19T20:53:32.561Z,26.48
2019-02-19T20:56:05.756Z,26.42
2019-02-19T20:58:36.145Z,20.68
2019-02-19T21:01:06.125Z,20.05
2019-02-19T21:03:36.775Z,19.85
2019-02-19T21:06:07.108Z,19.00
2019-02-19T21:08:37.524Z,27.17
2019-02-19T21:11:08.167Z,35.05
2019-02-19T21:13:38.391Z,27.17
2019-02-19T21:16:08.740Z,34.27
2019-02-19T21:18:38.633Z,29.60
2019-02-19T21:21:09.416Z,63.48
2019-02-19T21:23:39.700Z,41.75
2019-02-19T21:26:09.975Z,35.95
2019-02-19T21:28:39.537Z,32.63
2019-02-19T21:31:09.819Z,24.60
2019-02-19T21:33:40.535Z,22.85
2019-02-19T21:36:10.248Z,20.92
2019-02-19T21:38:40.511Z,19.15
2019-02-19T21:41:10.836Z,15.25
2019-02-19T21:43:41.071Z,20.37
2019-02-19T21:46:11.740Z,17.40
2019-02-19T21:48:48.045Z,16.40
2019-02-19T21:52:33.690Z,16.80
2019-02-19T21:55:04.615Z,14.68
2019-02-19T21:58:19.310Z,19.10
2019-02-19T22:01:15.615Z,17.17
2019-02-19T22:04:40.412Z,11.68
2019-02-19T22:07:10.565Z,12.53
2019-02-19T22:09:41.161Z,12.15
2019-02-19T22:12:11.495Z,14.38
2019-02-19T22:14:42.048Z,11.03
2019-02-19T22:17:12.164Z,15.08
2019-02-19T22:19:42.420Z,13.18
2019-02-19T22:22:16.669Z,14.10
2019-02-19T22:24:46.860Z,17.10
2019-02-19T22:27:17.179Z,16.40
2019-02-19T22:29:47.107Z,19.17
2019-02-19T22:32:20.201Z,16.77
2019-02-19T22:34:50.498Z,15.65
2019-02-19T22:37:20.579Z,16.32
2019-02-19T22:39:50.563Z,20.68
2019-02-19T22:42:20.357Z,15.53
2019-02-19T22:44:49.866Z,13.53
2019-02-19T22:47:20.351Z,13.40
2019-02-19T22:49:50.184Z,23.87
2019-02-19T22:52:20.400Z,21.62
2019-02-19T22:55:12.661Z,24.02
2019-02-19T22:57:42.916Z,29.27
2019-02-19T23:00:32.726Z,20.88
2019-02-19T23:03:02.949Z,17.82
2019-02-19T23:05:32.815Z,15.85
2019-02-19T23:08:02.583Z,23.70
2019-02-19T23:10:32.449Z,20.82
2019-02-19T23:13:02.351Z,21.02
2019-02-19T23:15:32.911Z,19.80
2019-02-19T23:18:03.114Z,22.93
2019-02-19T23:20:32.676Z,15.45
2019-02-19T23:23:02.934Z,11.75
2019-02-19T23:25:33.094Z,9.40
2019-02-19T23:28:02.959Z,15.38
2019-02-19T23:30:33.734Z,11.08
2019-02-19T23:33:04.120Z,11.15
2019-02-19T23:35:41.180Z,11.53
2019-02-19T23:38:11.204Z,8.90
2019-02-19T23:40:41.523Z,9.38
2019-02-19T23:43:11.782Z,9.85
2019-02-19T23:45:41.970Z,8.45
2019-02-19T23:48:11.493Z,8.15
2019-02-19T23:50:41.696Z,8.55
2019-02-19T23:53:10.886Z,8.35
2019-02-19T23:55:41.272Z,7.72
2019-02-19T23:58:11.867Z,8.10
